Aviation Digital Data Service (ADDS)

Output produced by METARs form (0935 UTC 29 May 2016)
found at http://aviationweather.gov/adds/metars/
 
KAEX 290853Z 00000KT 7SM CLR 21/21 A3004 RMK AO2 SLP174 T02060206 53003